Washington, DC (20375)

7:51 PM EST on February 26, 2015 (GMT -0500)
Kent | Change Station
CLOSE
Current Station
Personal Weather Station
Location: Washington, DC
Elevation: 272 ft
Nearby Weather Stations

Elev 272 ft 38.93 °N, 77.10 °W | Updated 4 seconds ago

Partly Cloudy
Partly Cloudy
30.9 °F
Feels Like 31 °F
N
0.0
Wind Variable Wind from WNW
Gusts 0.0 mph

Today
High -- | Low -- °F
--% Chance of Precip.
Yesterday
High -- | Low -- °F
Precip. -- in
6:45 AM 5:57 PM
Waxing Gibbous, 63% visible
Pressure 30.06 in
Visibility 10.0 miles
Clouds Mostly Cloudy 8500 ft
Windchill 31 °F
Dew Point 23 °F
Humidity 72%
Rainfall 0.07 in
Snow Depth Not available.
UV 0 out of 12
Pollen .60 out of 12
Air Quality Not available.
Flu Activity Not available.
METAR KDCA 262352Z 05003KT 10SM BKN085 02/M06 A3007 RMK AO2 SLP180 T00221056 10039 20017 53031

More Conditions Fewer Conditions

Pressure 30.06 in
Visibility 10.0 miles
Clouds Mostly Cloudy 8500 ft
Windchill 31 °F
Dew Point 23 °F
Humidity 72%
Rainfall 0.07 in
Snow Depth Not available.
UV 0 out of 12
Pollen .60 out of 12
Air Quality Not available.
Flu Activity Not available.
METAR KDCA 262352Z 05003KT 10SM BKN085 02/M06 A3007 RMK AO2 SLP180 T00221056 10039 20017 53031

More Conditions Fewer Conditions

10-Day Weather Forecast

Almanac

Astronomy

Feb. 26, 2015 Rise Set
Actual Time
Civil Twilight
Nautical Twilight
Astronomical Twilight
Moon
Length of Visible Light
Length of Day
Tomorrow will be .
, % of the Moon is Illuminated

Today's Extremes

State Highs State Lows

Community

WunderPhotos

Upload Photos

1,800,548 photos uploaded!

WunderBlogs® & News

Nearby

Air Quality

  Air Quality AQ Index Pollutant
Not available.

Snow Depth

Station Depth Elevation

Earthquake Activity

City Distance Mag. Time & Date
Minimum magnitude displayed is 2.5.

Coastal Water Temperatures

Place Temperature

Nearby Weather Stations